Time;durP1;ratioP1;P1;durP2;ratioP2;P2;SDS_P1;SDS_P2;PMS_P1;PMS_P2;Temp;Humidity;BMP_temperature;BMP_pressure;BME280_temperature;BME280_humidity;BME280_pressure;Samples;Min_cycle;Max_cycle;Signal;HPM_P1;HPM_P2
2022/10/05 00:01:25;;;;;;;2.85;2.53;;;9.10;99.90;;;;;;5053030;28;20204;-69
2022/10/05 00:03:57;;;;;;;4.18;3.65;;;9.10;99.90;;;;;;5053297;28;20232;-69
2022/10/05 00:06:25;;;;;;;4.00;3.55;;;9.10;99.90;;;;;;5052994;28;20612;-69
2022/10/05 00:08:51;;;;;;;3.05;2.70;;;9.10;99.90;;;;;;5053046;28;20232;-69
2022/10/05 00:11:18;;;;;;;3.10;2.83;;;9.00;99.90;;;;;;5052291;28;20201;-69
2022/10/05 00:13:46;;;;;;;4.78;2.70;;;9.00;99.90;;;;;;5052912;28;20225;-68
2022/10/05 00:16:16;;;;;;;3.42;2.40;;;9.00;99.90;;;;;;5052812;28;20251;-68
2022/10/05 00:18:50;;;;;;;3.90;3.60;;;9.00;99.90;;;;;;5053069;28;20548;-69
2022/10/05 00:21:20;;;;;;;3.90;3.10;;;9.00;99.90;;;;;;5052014;28;20601;-68
2022/10/05 00:23:47;;;;;;;3.90;3.00;;;9.00;99.90;;;;;;5052886;28;20222;-69
2022/10/05 00:26:19;;;;;;;4.45;3.40;;;9.00;99.90;;;;;;5052691;28;20315;-68
2022/10/05 00:28:48;;;;;;;3.88;2.92;;;9.00;99.90;;;;;;5052804;28;20227;-69
2022/10/05 00:31:18;;;;;;;4.13;2.88;;;9.00;99.90;;;;;;5051832;28;20211;-68
2022/10/05 00:33:44;;;;;;;3.28;2.97;;;8.90;99.90;;;;;;5052655;28;20255;-68
2022/10/05 00:36:12;;;;;;;3.13;2.63;;;8.90;99.90;;;;;;5052315;28;20211;-69
2022/10/05 00:38:39;;;;;;;3.30;3.00;;;8.90;99.90;;;;;;5052551;28;20202;-69
2022/10/05 00:41:10;;;;;;;3.88;3.35;;;8.90;99.90;;;;;;5052739;28;20212;-69
2022/10/05 00:44:03;;;;;;;4.60;3.15;;;8.90;99.90;;;;;;5052104;28;20225;-69
2022/10/05 00:46:38;;;;;;;3.60;3.30;;;8.90;99.90;;;;;;5052281;28;20224;-69
2022/10/05 00:49:15;;;;;;;5.60;3.10;;;8.90;99.90;;;;;;5052106;28;20228;-69
2022/10/05 00:51:51;;;;;;;3.80;3.50;;;8.90;99.90;;;;;;5051384;28;20215;-69
2022/10/05 00:54:27;;;;;;;4.00;3.60;;;8.90;99.90;;;;;;5051593;28;20225;-69
2022/10/05 00:57:05;;;;;;;3.47;3.10;;;8.90;99.90;;;;;;5051916;28;20684;-69
2022/10/05 00:59:47;;;;;;;3.35;3.05;;;8.90;99.90;;;;;;5051639;28;20204;-69
2022/10/05 01:02:18;;;;;;;3.20;2.90;;;8.90;99.90;;;;;;5050900;28;20716;-68
2022/10/05 01:04:52;;;;;;;4.28;3.35;;;8.90;99.90;;;;;;5051933;28;20232;-69
2022/10/05 01:07:29;;;;;;;4.80;3.38;;;8.90;99.90;;;;;;5051427;28;20242;-69
2022/10/05 01:10:05;;;;;;;4.65;3.65;;;8.90;99.90;;;;;;5051080;28;20570;-69
2022/10/05 01:12:38;;;;;;;3.40;3.10;;;8.90;99.90;;;;;;5051456;28;20204;-69
2022/10/05 01:15:12;;;;;;;6.45;3.47;;;8.90;99.90;;;;;;5051178;28;20225;-69
2022/10/05 01:17:43;;;;;;;4.20;3.47;;;8.90;99.90;;;;;;5051555;28;20292;-69
2022/10/05 01:20:22;;;;;;;3.95;3.30;;;8.90;99.90;;;;;;5051084;28;20259;-69
2022/10/05 01:23:07;;;;;;;3.88;3.45;;;8.90;99.90;;;;;;5050856;28;20204;-69
2022/10/05 01:25:48;;;;;;;4.05;3.65;;;8.90;99.90;;;;;;5051354;28;20245;-69
2022/10/05 01:28:21;;;;;;;3.35;3.05;;;8.90;99.90;;;;;;5051122;28;20252;-69
2022/10/05 01:30:54;;;;;;;3.80;3.42;;;8.90;99.90;;;;;;5051243;28;20211;-69
2022/10/05 01:33:30;;;;;;;5.13;3.30;;;9.00;99.90;;;;;;5050482;28;20220;-69
2022/10/05 01:36:07;;;;;;;3.83;3.53;;;8.90;99.90;;;;;;5051037;28;20205;-69
2022/10/05 01:38:42;;;;;;;3.95;3.15;;;8.90;99.90;;;;;;5051155;28;20229;-69
2022/10/05 01:41:19;;;;;;;3.70;3.40;;;8.90;99.90;;;;;;5050843;28;20204;-69
2022/10/05 01:43:52;;;;;;;5.15;3.95;;;8.90;99.90;;;;;;5051120;28;20221;-69
2022/10/05 01:46:27;;;;;;;4.10;3.63;;;8.90;99.90;;;;;;5050801;28;20213;-69
2022/10/05 01:49:07;;;;;;;3.90;3.50;;;8.90;99.90;;;;;;5050816;28;20708;-69
2022/10/05 01:51:42;;;;;;;3.90;3.60;;;8.90;99.90;;;;;;5050326;28;20240;-69
2022/10/05 01:54:19;;;;;;;5.00;3.75;;;8.80;99.90;;;;;;5050523;28;20704;-68
2022/10/05 01:56:56;;;;;;;5.78;4.03;;;8.80;99.90;;;;;;5050744;28;20244;-69
2022/10/05 01:59:34;;;;;;;3.55;3.25;;;8.70;99.90;;;;;;5050609;28;20573;-69
2022/10/05 02:02:04;;;;;;;4.72;4.10;;;8.70;99.90;;;;;;5049876;28;20206;-69
2022/10/05 02:04:35;;;;;;;5.05;3.55;;;8.70;99.90;;;;;;5050275;28;20643;-69
2022/10/05 02:07:06;;;;;;;4.50;3.95;;;8.70;99.90;;;;;;5050469;28;20210;-69
2022/10/05 02:09:38;;;;;;;4.00;3.55;;;8.60;99.90;;;;;;5050559;28;20235;-69
2022/10/05 02:12:09;;;;;;;5.43;4.38;;;8.70;99.90;;;;;;5049811;28;20680;-68
2022/10/05 02:14:41;;;;;;;5.40;3.47;;;8.70;99.90;;;;;;5050604;28;20607;-69
2022/10/05 02:17:13;;;;;;;4.10;3.70;;;8.70;99.90;;;;;;5050352;28;20212;-69
2022/10/05 02:19:43;;;;;;;4.57;4.05;;;8.70;99.90;;;;;;5050343;28;20209;-69
2022/10/05 02:22:14;;;;;;;4.68;3.55;;;8.70;99.90;;;;;;5048713;28;20202;-69
2022/10/05 02:24:47;;;;;;;6.75;4.20;;;8.70;99.90;;;;;;5050316;28;20228;-68
2022/10/05 02:27:19;;;;;;;6.20;4.50;;;8.70;99.90;;;;;;5050188;28;20212;-68
2022/10/05 02:29:50;;;;;;;5.05;4.18;;;8.70;99.90;;;;;;5050156;28;20223;-68
2022/10/05 02:32:23;;;;;;;4.75;3.70;;;8.70;99.90;;;;;;5049516;28;20208;-69
2022/10/05 02:34:50;;;;;;;4.13;3.47;;;8.70;99.90;;;;;;5050248;28;20232;-69
2022/10/05 02:37:27;;;;;;;5.13;3.78;;;8.70;99.90;;;;;;5050136;28;20214;-68
2022/10/05 02:40:06;;;;;;;5.22;3.97;;;8.60;99.90;;;;;;5050216;28;20212;-68
2022/10/05 02:42:41;;;;;;;3.90;3.50;;;8.60;99.90;;;;;;5049492;28;20208;-68
2022/10/05 02:45:21;;;;;;;4.07;3.67;;;8.60;99.90;;;;;;5050047;28;20235;-68
2022/10/05 02:47:58;;;;;;;5.03;3.70;;;8.60;99.90;;;;;;5050260;28;20201;-68
2022/10/05 02:50:30;;;;;;;5.03;3.95;;;8.60;99.90;;;;;;5050463;28;20208;-68
2022/10/05 02:53:09;;;;;;;5.18;3.90;;;8.60;99.90;;;;;;5049666;28;20204;-68
2022/10/05 02:55:44;;;;;;;4.75;4.35;;;8.60;99.90;;;;;;5050265;28;20208;-68
2022/10/05 02:58:14;;;;;;;6.85;4.55;;;8.50;99.90;;;;;;5050175;28;20197;-69
2022/10/05 03:00:46;;;;;;;4.50;4.10;;;8.50;99.90;;;;;;5050283;28;20240;-69
2022/10/05 03:03:19;;;;;;;3.80;3.10;;;8.50;99.90;;;;;;5049682;28;20673;-68
2022/10/05 03:05:51;;;;;;;5.18;4.68;;;8.50;99.90;;;;;;5050246;28;20208;-68
2022/10/05 03:08:21;;;;;;;5.13;4.57;;;8.50;99.90;;;;;;5049875;28;20225;-68
2022/10/05 03:10:56;;;;;;;5.90;4.35;;;8.40;99.90;;;;;;5049975;28;20205;-68
2022/10/05 03:13:29;;;;;;;5.13;4.03;;;8.40;99.90;;;;;;5049534;28;20211;-68
2022/10/05 03:16:26;;;;;;;4.57;4.18;;;8.40;99.90;;;;;;5050249;28;20210;-68
2022/10/05 03:19:09;;;;;;;4.88;4.38;;;8.40;99.90;;;;;;5049996;28;20800;-68
2022/10/05 03:21:48;;;;;;;5.53;4.88;;;8.40;99.90;;;;;;5049601;28;20646;-69
2022/10/05 03:24:31;;;;;;;4.35;3.95;;;8.30;99.90;;;;;;5049431;28;20225;-69
2022/10/05 03:27:06;;;;;;;4.88;3.80;;;8.30;99.90;;;;;;5049941;28;20609;-69
2022/10/05 03:29:50;;;;;;;5.32;4.10;;;8.30;99.90;;;;;;5049991;28;20235;-68
2022/10/05 03:32:25;;;;;;;6.32;4.10;;;8.30;99.90;;;;;;5049375;28;20549;-69
2022/10/05 03:34:59;;;;;;;5.88;3.85;;;8.30;99.90;;;;;;5051964;28;20227;-68
2022/10/05 03:37:34;;;;;;;4.30;3.90;;;8.30;99.90;;;;;;5051792;28;20204;-68
2022/10/05 03:40:07;;;;;;;5.97;4.10;;;8.20;99.90;;;;;;5052180;28;20193;-68
2022/10/05 03:42:48;;;;;;;6.95;4.10;;;8.20;99.90;;;;;;5051707;28;20200;-69
2022/10/05 03:45:23;;;;;;;4.65;4.15;;;8.20;99.90;;;;;;5050888;28;20592;-68
2022/10/05 03:47:56;;;;;;;5.10;4.00;;;8.20;99.90;;;;;;5050240;28;20194;-68
2022/10/05 03:50:33;;;;;;;4.13;3.72;;;8.20;99.90;;;;;;5049360;28;20588;-68
2022/10/05 03:53:03;;;;;;;4.97;4.22;;;8.20;99.90;;;;;;5051283;28;20206;-68
2022/10/05 03:55:36;;;;;;;4.43;4.03;;;8.20;99.90;;;;;;5123996;22;20232;-68
2022/10/05 03:58:12;;;;;;;4.95;4.45;;;8.20;99.90;;;;;;5050693;28;20553;-68
2022/10/05 04:00:40;;;;;;;4.63;3.70;;;8.20;99.90;;;;;;5051682;28;20203;-68
2022/10/05 04:03:15;;;;;;;5.03;4.25;;;8.20;99.90;;;;;;5050462;28;20669;-68
2022/10/05 04:05:46;;;;;;;4.45;3.80;;;8.20;99.90;;;;;;5032654;28;20206;-68
2022/10/05 04:08:21;;;;;;;4.00;3.65;;;8.30;99.90;;;;;;5032361;28;20716;-69
2022/10/05 04:10:51;;;;;;;4.80;3.85;;;8.20;99.90;;;;;;5033177;28;20208;-69
2022/10/05 04:13:23;;;;;;;5.68;3.70;;;8.20;99.90;;;;;;5031942;28;20202;-68
2022/10/05 04:15:57;;;;;;;5.43;4.13;;;8.20;99.90;;;;;;5032743;28;20208;-68
2022/10/05 04:18:30;;;;;;;5.65;3.92;;;8.20;99.90;;;;;;5032557;28;20548;-68
2022/10/05 04:21:05;;;;;;;5.28;4.28;;;8.20;99.90;;;;;;5032499;28;20230;-68
2022/10/05 04:23:40;;;;;;;6.07;4.15;;;8.20;99.90;;;;;;5032448;28;20217;-68
2022/10/05 04:26:10;;;;;;;4.60;4.10;;;8.10;99.90;;;;;;5029571;28;20457;-68
2022/10/05 04:28:45;;;;;;;4.60;4.10;;;8.10;99.90;;;;;;5031847;28;20711;-68
2022/10/05 04:31:16;;;;;;;4.70;3.78;;;8.10;99.90;;;;;;5030591;28;20216;-67
2022/10/05 04:33:53;;;;;;;4.50;3.60;;;8.10;99.90;;;;;;5030383;28;20240;-67
2022/10/05 04:36:26;;;;;;;5.47;4.35;;;8.10;99.90;;;;;;5032140;28;20210;-68
2022/10/05 04:39:08;;;;;;;5.28;4.25;;;8.00;99.90;;;;;;5032089;28;20213;-67
2022/10/05 04:41:58;;;;;;;4.30;3.78;;;8.00;99.90;;;;;;5032364;28;20237;-68
2022/10/05 04:44:43;;;;;;;4.43;3.40;;;8.00;99.90;;;;;;5030157;28;20674;-67
2022/10/05 04:47:31;;;;;;;4.07;3.63;;;8.00;99.90;;;;;;5032694;28;20207;-68
2022/10/05 04:50:17;;;;;;;4.38;3.17;;;7.90;99.90;;;;;;5030357;28;20224;-68
2022/10/05 04:52:55;;;;;;;4.05;3.65;;;7.90;99.90;;;;;;5031570;28;20198;-65
2022/10/05 04:55:31;;;;;;;4.45;3.85;;;7.90;99.90;;;;;;5032291;28;20250;-66
2022/10/05 04:58:08;;;;;;;4.45;3.60;;;7.90;99.90;;;;;;5032489;28;20817;-67
2022/10/05 05:00:46;;;;;;;4.68;3.70;;;7.90;99.90;;;;;;5032556;28;20209;-68
2022/10/05 05:03:39;;;;;;;5.55;4.70;;;7.90;99.90;;;;;;5031467;28;20208;-67
2022/10/05 05:06:21;;;;;;;4.30;3.40;;;7.80;99.90;;;;;;5031841;28;20209;-67
2022/10/05 05:09:18;;;;;;;4.38;3.78;;;7.80;99.90;;;;;;5031724;28;20205;-67
2022/10/05 05:11:57;;;;;;;4.20;3.35;;;7.80;99.90;;;;;;5027601;28;20202;-68
2022/10/05 05:14:44;;;;;;;6.85;4.10;;;7.90;99.90;;;;;;5032388;28;20232;-67
2022/10/05 05:17:25;;;;;;;5.93;4.38;;;8.20;99.90;;;;;;5031699;28;20204;-67
2022/10/05 05:20:01;;;;;;;5.05;4.30;;;8.10;99.90;;;;;;5031560;28;20207;-67
2022/10/05 05:22:38;;;;;;;5.38;4.57;;;8.10;99.90;;;;;;5031387;28;20584;-67
2022/10/05 05:25:20;;;;;;;6.80;3.47;;;7.90;99.90;;;;;;5031479;28;20250;-69
2022/10/05 05:27:52;;;;;;;5.03;4.50;;;7.80;99.90;;;;;;5031438;28;20732;-69
2022/10/05 05:30:24;;;;;;;4.40;3.80;;;7.80;99.90;;;;;;5031778;28;20228;-68
2022/10/05 05:33:04;;;;;;;6.07;4.45;;;7.70;99.90;;;;;;5031170;28;20618;-69
2022/10/05 05:35:43;;;;;;;4.25;3.80;;;7.70;99.90;;;;;;5031988;28;20754;-69
2022/10/05 05:38:24;;;;;;;5.78;4.50;;;7.70;99.90;;;;;;5031560;28;20215;-69
2022/10/05 05:40:59;;;;;;;4.88;4.45;;;7.70;99.90;;;;;;5031682;28;20706;-69
2022/10/05 05:43:32;;;;;;;4.85;4.35;;;7.60;99.90;;;;;;5031286;28;20674;-70
2022/10/05 05:46:01;;;;;;;4.90;4.20;;;7.60;99.90;;;;;;5031513;28;20213;-70
2022/10/05 05:48:35;;;;;;;5.70;4.18;;;7.60;99.90;;;;;;5032135;28;20201;-70
2022/10/05 05:51:07;;;;;;;5.38;3.78;;;7.60;99.90;;;;;;5031240;28;20235;-68
2022/10/05 05:53:39;;;;;;;6.22;4.40;;;7.60;99.90;;;;;;5031431;28;20222;-68
2022/10/05 05:56:11;;;;;;;5.70;4.45;;;7.60;99.90;;;;;;5031151;28;20210;-67
2022/10/05 05:58:45;;;;;;;5.13;4.63;;;7.60;99.90;;;;;;5031470;28;20682;-67
2022/10/05 06:01:22;;;;;;;5.50;4.45;;;7.60;99.90;;;;;;5030784;28;20198;-65
2022/10/05 06:03:52;;;;;;;6.50;4.50;;;7.60;99.90;;;;;;5031259;28;20616;-67
2022/10/05 06:06:21;;;;;;;4.18;3.75;;;7.70;99.90;;;;;;5031549;28;20210;-67
2022/10/05 06:08:54;;;;;;;6.05;5.32;;;7.70;99.90;;;;;;5031320;28;20203;-67
2022/10/05 06:11:25;;;;;;;6.60;4.30;;;7.70;99.90;;;;;;5031106;28;20294;-67
2022/10/05 06:13:54;;;;;;;6.25;5.00;;;7.70;99.90;;;;;;5031483;28;20637;-67
2022/10/05 06:16:25;;;;;;;5.75;4.65;;;7.70;99.90;;;;;;5031590;28;20560;-67
2022/10/05 06:18:55;;;;;;;5.72;4.88;;;7.80;99.90;;;;;;5030796;28;20212;-68
2022/10/05 06:21:28;;;;;;;5.95;5.35;;;7.90;99.90;;;;;;5030862;28;20206;-67
2022/10/05 06:24:01;;;;;;;7.05;4.85;;;7.90;99.90;;;;;;5030714;28;20226;-66
2022/10/05 06:26:42;;;;;;;7.82;5.38;;;8.00;99.90;;;;;;5030823;28;20255;-66
2022/10/05 06:29:14;;;;;;;6.13;5.03;;;8.00;99.90;;;;;;5030170;28;20202;-65
2022/10/05 06:32:02;;;;;;;6.55;5.13;;;8.10;99.90;;;;;;5030564;28;20207;-67
2022/10/05 06:34:56;;;;;;;6.22;5.45;;;8.20;99.90;;;;;;5031004;28;20233;-67
2022/10/05 06:37:34;;;;;;;6.03;5.25;;;8.20;99.90;;;;;;5030991;28;20205;-67
2022/10/05 06:40:11;;;;;;;6.22;4.88;;;8.30;99.90;;;;;;5029147;28;20201;-68
2022/10/05 06:43:01;;;;;;;6.80;6.18;;;8.40;99.90;;;;;;5029756;28;20209;-67
2022/10/05 06:45:35;;;;;;;5.97;5.35;;;8.60;99.90;;;;;;5029491;28;20226;-67
2022/10/05 06:48:11;;;;;;;6.72;6.03;;;8.70;99.90;;;;;;5030722;28;20211;-67
2022/10/05 06:50:43;;;;;;;9.93;5.95;;;8.80;99.90;;;;;;5029207;28;20225;-67
2022/10/05 06:53:26;;;;;;;6.30;5.45;;;9.00;99.90;;;;;;5030238;28;20211;-68
2022/10/05 06:56:01;;;;;;;5.95;5.32;;;9.20;99.90;;;;;;5030645;28;20239;-68
2022/10/05 06:58:55;;;;;;;6.57;4.90;;;9.30;99.90;;;;;;5030802;28;20204;-68
2022/10/05 07:01:34;;;;;;;6.13;5.05;;;9.50;99.90;;;;;;5030383;28;20216;-67
2022/10/05 07:04:24;;;;;;;5.60;5.00;;;9.70;99.90;;;;;;5030091;28;20233;-67
2022/10/05 07:06:55;;;;;;;9.23;5.60;;;10.00;99.90;;;;;;5026624;28;20579;-67
2022/10/05 07:09:31;;;;;;;7.45;5.40;;;10.20;99.90;;;;;;5036878;28;20210;-68
2022/10/05 07:12:22;;;;;;;5.72;4.65;;;10.50;99.90;;;;;;5052602;28;20205;-68
2022/10/05 07:15:00;;;;;;;5.82;4.82;;;10.70;99.90;;;;;;5053649;28;20222;-67
2022/10/05 07:17:43;;;;;;;4.20;3.80;;;11.10;99.90;;;;;;5053239;28;20594;-68
2022/10/05 07:20:17;;;;;;;4.40;4.00;;;11.30;99.90;;;;;;5053208;28;20205;-68
2022/10/05 07:23:06;;;;;;;5.70;4.25;;;11.60;99.90;;;;;;5040710;28;20678;-68
2022/10/05 07:25:37;;;;;;;3.72;3.40;;;11.80;99.90;;;;;;5034123;28;20229;-69
2022/10/05 07:28:09;;;;;;;4.90;3.70;;;12.00;99.90;;;;;;5033942;28;20684;-70
2022/10/05 07:30:45;;;;;;;3.63;3.28;;;12.20;99.90;;;;;;5034276;28;20226;-70
2022/10/05 07:33:17;;;;;;;3.90;3.25;;;12.30;99.90;;;;;;5033773;28;20568;-70
2022/10/05 07:38:41;;;;;;;4.38;3.70;;;12.80;99.90;;;;;;5034325;28;20269;-68
2022/10/05 07:41:13;;;;;;;2.80;2.60;;;13.10;99.90;;;;;;5033798;28;20244;-68
2022/10/05 07:43:45;;;;;;;3.50;3.20;;;13.30;99.90;;;;;;5034029;28;20309;-68
2022/10/05 07:46:20;;;;;;;3.63;3.33;;;13.50;99.90;;;;;;5033918;28;20207;-68
2022/10/05 07:49:01;;;;;;;4.00;2.70;;;13.70;99.90;;;;;;5033884;28;20198;-68
2022/10/05 07:51:33;;;;;;;3.20;2.90;;;14.00;99.90;;;;;;5033562;28;20503;-68
2022/10/05 07:54:13;;;;;;;2.63;2.43;;;14.10;99.90;;;;;;5033717;28;20886;-66
2022/10/05 07:56:42;;;;;;;3.10;2.57;;;14.40;99.90;;;;;;5033635;28;20477;-65
2022/10/05 07:59:19;;;;;;;2.83;2.60;;;14.50;99.90;;;;;;5033532;28;20472;-66
2022/10/05 08:01:50;;;;;;;3.07;2.73;;;14.80;99.90;;;;;;5033238;28;20456;-66
2022/10/05 08:04:24;;;;;;;3.00;2.77;;;15.00;99.90;;;;;;5033543;28;20579;-66
2022/10/05 08:06:53;;;;;;;2.47;2.27;;;15.20;99.90;;;;;;5033368;28;20467;-66
2022/10/05 08:09:34;;;;;;;3.00;2.63;;;15.40;99.90;;;;;;5033460;28;20461;-66
2022/10/05 08:12:21;;;;;;;3.13;2.60;;;15.60;99.90;;;;;;5032224;28;20464;-67
2022/10/05 08:14:55;;;;;;;3.20;2.57;;;15.80;99.90;;;;;;5033080;28;20854;-68
2022/10/05 08:17:31;;;;;;;2.60;2.40;;;16.00;99.90;;;;;;5032959;28;20461;-69
2022/10/05 08:20:07;;;;;;;3.40;3.10;;;16.20;99.90;;;;;;5031571;28;20507;-68
2022/10/05 08:22:41;;;;;;;2.73;2.53;;;16.40;99.90;;;;;;5032710;28;20461;-68
2022/10/05 08:25:18;;;;;;;2.87;2.57;;;16.50;99.90;;;;;;5033108;28;20484;-68
2022/10/05 08:27:52;;;;;;;3.60;2.97;;;16.50;99.90;;;;;;5032905;28;20464;-69
2022/10/05 08:30:20;;;;;;;3.60;2.53;;;16.70;99.90;;;;;;5033041;28;20485;-69
2022/10/05 08:32:53;;;;;;;2.80;2.37;;;16.80;99.90;;;;;;5031253;28;20467;-66
2022/10/05 08:35:28;;;;;;;2.60;2.40;;;16.90;99.90;;;;;;5033170;28;21003;-68
2022/10/05 08:37:56;;;;;;;2.73;2.53;;;17.00;99.90;;;;;;5033111;28;20942;-68
2022/10/05 08:40:53;;;;;;;2.17;1.97;;;17.10;99.90;;;;;;5032987;28;20551;-69
2022/10/05 08:43:47;;;;;;;2.10;2.00;;;17.20;99.90;;;;;;5032925;28;20909;-68
2022/10/05 08:46:44;;;;;;;2.40;2.20;;;17.40;99.90;;;;;;5032980;28;20465;-68
2022/10/05 08:49:40;;;;;;;3.40;3.00;;;17.60;99.90;;;;;;5090539;22;20484;-71
2022/10/05 08:52:27;;;;;;;2.37;2.17;;;17.70;99.90;;;;;;5027487;23;20497;-71
2022/10/05 08:55:28;;;;;;;2.57;2.10;;;17.90;99.90;;;;;;4993020;28;20491;-71
2022/10/05 08:58:25;;;;;;;3.30;2.63;;;18.20;99.90;;;;;;4992976;28;20468;-69
2022/10/05 09:01:00;;;;;;;2.50;2.30;;;18.40;99.90;;;;;;4993015;28;20459;-70
2022/10/05 09:03:57;;;;;;;3.83;2.30;;;18.60;99.90;;;;;;4992765;28;20462;-69
2022/10/05 09:06:47;;;;;;;2.87;2.47;;;18.80;99.90;;;;;;4993407;28;20463;-72
2022/10/05 09:09:53;;;;;;;5.50;2.07;;;19.00;99.90;;;;;;4993084;28;20469;-72
2022/10/05 09:12:52;;;;;;;2.30;2.10;;;19.20;99.90;;;;;;4992827;28;20462;-72
2022/10/05 09:15:57;;;;;;;3.40;1.80;;;19.20;99.90;;;;;;4985981;28;20490;-70
2022/10/05 09:19:03;;;;;;;1.97;1.87;;;19.20;99.90;;;;;;4993047;28;20458;-71
2022/10/05 09:21:40;;;;;;;2.10;1.90;;;19.30;99.90;;;;;;4992908;28;20565;-72
2022/10/05 09:24:25;;;;;;;2.43;2.20;;;19.50;99.90;;;;;;4992581;28;20513;-72
2022/10/05 09:27:02;;;;;;;2.87;2.50;;;19.70;99.90;;;;;;4992666;28;20561;-69
2022/10/05 09:30:00;;;;;;;3.47;2.30;;;19.90;99.90;;;;;;4992953;28;20458;-71
2022/10/05 09:33:00;;;;;;;2.33;2.13;;;20.10;99.90;;;;;;4991944;28;20502;-71
2022/10/05 09:35:52;;;;;;;2.17;1.97;;;20.40;99.90;;;;;;4990730;28;20483;-70
2022/10/05 09:38:28;;;;;;;2.17;2.00;;;20.50;99.90;;;;;;4992784;28;20466;-70
2022/10/05 09:41:29;;;;;;;3.20;2.13;;;20.50;99.90;;;;;;4992358;28;20984;-70
2022/10/05 09:44:23;;;;;;;2.73;2.07;;;20.50;99.90;;;;;;4992363;28;20483;-71
2022/10/05 09:47:06;;;;;;;2.77;2.00;;;20.60;99.90;;;;;;4992378;28;20475;-70
2022/10/05 09:50:05;;;;;;;2.17;1.97;;;20.70;99.90;;;;;;4992195;28;20469;-71
2022/10/05 09:53:00;;;;;;;1.83;1.63;;;20.90;99.90;;;;;;4991670;28;20475;-70
2022/10/05 09:55:52;;;;;;;1.70;1.60;;;21.10;99.90;;;;;;4999422;28;20481;-70
2022/10/05 09:58:52;;;;;;;1.93;1.80;;;21.30;99.90;;;;;;4972510;28;20470;-71
2022/10/05 10:01:30;;;;;;;2.17;1.97;;;21.10;99.90;;;;;;4953035;28;20469;-70
2022/10/05 10:04:17;;;;;;;1.63;1.50;;;21.00;99.90;;;;;;4970925;28;20487;-70
2022/10/05 10:07:15;;;;;;;2.00;1.50;;;21.00;99.90;;;;;;4971840;28;20474;-70
2022/10/05 10:09:58;;;;;;;1.57;1.47;;;21.10;99.90;;;;;;4971474;28;20470;-69
2022/10/05 10:12:36;;;;;;;2.20;2.00;;;21.20;99.90;;;;;;4971476;28;20456;-70
2022/10/05 10:15:40;;;;;;;1.77;1.50;;;21.40;99.90;;;;;;4971447;28;20490;-70
2022/10/05 10:18:30;;;;;;;1.47;1.37;;;21.50;99.90;;;;;;4970628;28;20973;-70
2022/10/05 10:21:20;;;;;;;2.10;1.90;;;21.40;99.90;;;;;;4962849;28;20467;-70
2022/10/05 10:24:00;;;;;;;1.80;1.70;;;21.50;99.90;;;;;;4971366;28;20483;-70
2022/10/05 10:26:58;;;;;;;1.60;1.43;;;21.50;99.90;;;;;;4971733;28;20466;-70
2022/10/05 10:30:03;;;;;;;1.80;1.70;;;21.70;99.90;;;;;;4971186;28;20653;-70
2022/10/05 10:33:16;;;;;;;1.60;1.50;;;21.90;99.90;;;;;;4971063;28;20907;-70
2022/10/05 10:35:54;;;;;;;2.43;1.70;;;22.30;99.90;;;;;;4971462;28;20546;-70
2022/10/05 10:38:38;;;;;;;2.47;2.27;;;22.30;99.90;;;;;;4971756;28;20473;-70
2022/10/05 10:41:39;;;;;;;1.73;1.63;;;22.50;99.90;;;;;;4970685;28;20924;-70
2022/10/05 10:44:36;;;;;;;3.20;1.70;;;22.70;99.90;;;;;;4970674;28;20481;-70
2022/10/05 10:47:42;;;;;;;1.77;1.60;;;22.70;99.90;;;;;;4970701;28;20470;-69
2022/10/05 10:50:47;;;;;;;1.70;1.60;;;22.80;99.90;;;;;;4971372;28;20545;-70
2022/10/05 10:53:46;;;;;;;1.80;1.70;;;22.80;99.90;;;;;;4970547;28;20498;-70
2022/10/05 10:56:45;;;;;;;1.40;1.30;;;23.00;99.90;;;;;;4971244;28;20460;-70
2022/10/05 10:59:53;;;;;;;2.10;1.90;;;23.10;99.90;;;;;;4971289;28;20779;-71
2022/10/05 11:02:52;;;;;;;1.60;1.50;;;23.10;99.90;;;;;;4970871;28;21010;-72
2022/10/05 11:05:32;;;;;;;2.00;1.80;;;23.20;99.90;;;;;;5074058;23;20986;-66
2022/10/05 11:08:22;;;;;;;1.83;1.73;;;23.30;99.90;;;;;;5049226;28;20459;-67
2022/10/05 11:11:12;;;;;;;1.87;1.77;;;23.50;99.90;;;;;;5049982;28;20494;-67
2022/10/05 11:14:02;;;;;;;3.03;2.20;;;23.70;99.90;;;;;;5047704;28;20475;-67
2022/10/05 11:16:59;;;;;;;1.60;1.50;;;23.70;99.90;;;;;;5049543;28;20470;-67
2022/10/05 11:19:51;;;;;;;1.90;1.60;;;23.60;99.90;;;;;;5040394;28;20471;-67
2022/10/05 11:22:54;;;;;;;1.80;1.70;;;23.20;99.90;;;;;;5048455;28;20860;-68
2022/10/05 11:25:52;;;;;;;7.10;3.87;;;23.30;99.90;;;;;;5049157;28;20482;-67
2022/10/05 11:28:42;;;;;;;5.00;3.43;;;23.50;99.90;;;;;;5040133;28;20767;-66
2022/10/05 11:31:33;;;;;;;2.63;2.43;;;23.60;99.90;;;;;;5049048;28;21032;-67
2022/10/05 11:34:20;;;;;;;5.47;2.67;;;23.60;99.90;;;;;;5049193;28;20495;-67
2022/10/05 11:37:18;;;;;;;2.40;2.20;;;23.70;99.90;;;;;;5049318;28;20801;-68
2022/10/05 11:40:01;;;;;;;1.93;1.80;;;23.70;99.90;;;;;;5048873;28;20664;-67
2022/10/05 11:43:00;;;;;;;2.10;1.90;;;23.90;99.90;;;;;;5048327;28;20966;-68
2022/10/05 11:45:38;;;;;;;2.47;2.13;;;24.00;99.90;;;;;;5048824;28;20494;-69
2022/10/05 11:48:44;;;;;;;5.30;3.20;;;24.20;99.90;;;;;;5049359;28;20484;-68
2022/10/05 11:51:27;;;;;;;2.77;2.20;;;24.20;99.90;;;;;;5047748;28;20498;-70
2022/10/05 11:54:03;;;;;;;2.10;1.90;;;24.30;99.90;;;;;;5049790;28;20483;-68
2022/10/05 11:56:37;;;;;;;2.17;1.97;;;24.20;99.90;;;;;;5052757;28;21491;-68
2022/10/05 11:59:14;;;;;;;1.80;1.60;;;24.10;99.90;;;;;;5052374;28;20463;-67
2022/10/05 12:01:50;;;;;;;1.97;1.77;;;24.20;99.90;;;;;;5052508;28;20455;-68
2022/10/05 12:04:24;;;;;;;1.70;1.60;;;24.40;99.90;;;;;;5051813;28;21015;-67
2022/10/05 12:07:03;;;;;;;2.67;1.97;;;24.50;99.90;;;;;;5052983;28;20463;-66
2022/10/05 12:10:12;;;;;;;2.00;1.90;;;24.40;99.90;;;;;;5052912;28;20460;-67
2022/10/05 12:12:37;;;;;;;4.37;1.90;;;24.50;99.90;;;;;;5051926;28;20475;-67
2022/10/05 12:15:17;;;;;;;1.63;1.53;;;24.70;99.90;;;;;;5052663;28;20491;-67
2022/10/05 12:17:52;;;;;;;1.80;1.70;;;24.80;99.90;;;;;;5052152;28;20464;-67
2022/10/05 12:20:24;;;;;;;2.20;2.00;;;24.70;99.90;;;;;;5052080;28;20470;-67
2022/10/05 12:22:56;;;;;;;2.07;1.73;;;24.60;99.90;;;;;;5052228;28;20460;-67
2022/10/05 12:25:30;;;;;;;1.43;1.33;;;24.70;99.90;;;;;;5052060;28;20953;-68
2022/10/05 12:28:02;;;;;;;7.03;1.80;;;24.40;99.90;;;;;;5051993;28;20530;-68
2022/10/05 12:30:50;;;;;;;2.57;1.90;;;24.50;99.90;;;;;;5051813;28;20464;-68
2022/10/05 12:33:21;;;;;;;1.60;1.50;;;24.60;99.90;;;;;;5051357;28;20459;-67
2022/10/05 12:35:52;;;;;;;1.40;1.30;;;24.70;99.90;;;;;;5051733;28;20467;-68
2022/10/05 12:38:27;;;;;;;1.53;1.43;;;24.70;99.90;;;;;;5051856;28;20463;-68
2022/10/05 12:41:04;;;;;;;1.80;1.30;;;24.90;99.90;;;;;;5051559;28;20456;-68
2022/10/05 12:43:38;;;;;;;1.70;1.60;;;24.60;99.90;;;;;;5051174;28;20510;-68
2022/10/05 12:46:15;;;;;;;1.47;1.23;;;24.60;99.90;;;;;;5051912;28;20455;-67
2022/10/05 12:49:02;;;;;;;1.43;1.30;;;24.80;99.90;;;;;;5051972;28;20460;-68
2022/10/05 12:51:38;;;;;;;1.47;1.30;;;24.80;99.90;;;;;;5047620;28;20484;-68
2022/10/05 12:54:16;;;;;;;1.23;1.13;;;24.60;99.90;;;;;;5048940;28;20483;-68
2022/10/05 12:56:51;;;;;;;1.20;1.07;;;24.50;99.90;;;;;;5050471;28;20482;-67
2022/10/05 12:59:31;;;;;;;2.60;1.10;;;24.50;99.90;;;;;;5051179;28;20467;-69
2022/10/05 13:02:05;;;;;;;1.37;1.20;;;24.50;99.90;;;;;;5050843;28;20813;-68
2022/10/05 13:04:41;;;;;;;1.30;1.10;;;24.50;99.90;;;;;;5051349;28;20488;-68
2022/10/05 13:07:28;;;;;;;1.70;1.00;;;24.70;99.90;;;;;;5050066;28;20467;-68
2022/10/05 13:10:03;;;;;;;1.30;1.20;;;24.80;99.90;;;;;;5050998;28;20819;-68
2022/10/05 13:12:40;;;;;;;1.10;1.00;;;24.90;99.90;;;;;;5030662;28;20539;-68
2022/10/05 13:15:18;;;;;;;1.10;1.00;;;24.80;99.90;;;;;;5030822;28;20480;-68
2022/10/05 13:17:53;;;;;;;1.40;1.30;;;24.90;99.90;;;;;;5031172;28;20472;-68
2022/10/05 13:20:29;;;;;;;2.97;0.90;;;24.70;99.90;;;;;;5031390;28;20456;-76
2022/10/05 13:23:04;;;;;;;1.20;1.10;;;24.70;99.90;;;;;;5030992;28;20448;-68
2022/10/05 13:25:34;;;;;;;1.03;0.90;;;24.60;99.70;;;;;;5031356;28;20847;-69
2022/10/05 13:28:16;;;;;;;1.50;1.27;;;24.30;99.80;;;;;;5031218;28;20552;-68
2022/10/05 13:30:51;;;;;;;1.20;1.00;;;24.30;99.10;;;;;;5031086;28;20952;-68
2022/10/05 13:33:27;;;;;;;1.87;1.00;;;24.20;99.50;;;;;;5030500;28;20904;-68
2022/10/05 13:36:01;;;;;;;2.20;1.20;;;24.10;99.60;;;;;;5031159;28;20515;-68
2022/10/05 13:38:42;;;;;;;2.60;1.10;;;24.20;99.90;;;;;;5031621;28;20837;-68
2022/10/05 13:41:17;;;;;;;1.77;1.27;;;24.30;99.90;;;;;;5030783;28;20482;-68
2022/10/05 13:43:58;;;;;;;1.10;1.00;;;24.30;99.90;;;;;;5030801;28;20840;-67
2022/10/05 13:46:35;;;;;;;1.40;1.27;;;24.30;99.70;;;;;;5031372;28;20461;-67
2022/10/05 13:49:14;;;;;;;1.60;1.07;;;24.20;99.10;;;;;;5030451;28;20461;-67
2022/10/05 13:51:46;;;;;;;1.00;0.90;;;24.20;98.90;;;;;;5030595;28;20484;-68
2022/10/05 13:54:18;;;;;;;1.10;1.00;;;24.10;99.00;;;;;;5030476;28;20567;-68
2022/10/05 13:56:48;;;;;;;1.63;1.23;;;24.20;99.90;;;;;;5030332;28;20461;-67
2022/10/05 13:59:27;;;;;;;1.23;1.13;;;24.30;99.60;;;;;;5030661;28;20472;-67